Time;durP1;ratioP1;P1;durP2;ratioP2;P2;SDS_P1;SDS_P2;PMS_P1;PMS_P2;Temp;Humidity;BMP_temperature;BMP_pressure;BME280_temperature;BME280_humidity;BME280_pressure;Samples;Min_cycle;Max_cycle;Signal;HPM_P1;HPM_P2
2021/12/25 00:01:20;;;;;;;5.03;1.33;;;-1.50;99.90;;;;;;5013521;28;20499;-77
2021/12/25 00:03:47;;;;;;;7.68;1.10;;;-1.50;99.90;;;;;;5030943;28;20477;-74
2021/12/25 00:06:13;;;;;;;3.92;0.88;;;-1.50;99.90;;;;;;5029644;28;20057;-75
2021/12/25 00:08:39;;;;;;;8.77;1.20;;;-1.50;99.90;;;;;;5030412;28;20053;-75
2021/12/25 00:11:07;;;;;;;4.00;0.80;;;-1.50;99.90;;;;;;5030999;28;20057;-75
2021/12/25 00:13:40;;;;;;;7.97;0.85;;;-1.60;99.90;;;;;;5013498;28;20057;-76
2021/12/25 00:16:06;;;;;;;4.43;0.82;;;-1.60;99.90;;;;;;5012923;28;20064;-76
2021/12/25 00:18:33;;;;;;;2.03;0.70;;;-1.60;99.90;;;;;;5031476;28;20042;-79
2021/12/25 00:20:59;;;;;;;4.75;1.50;;;-1.70;99.90;;;;;;5029758;28;20038;-75
2021/12/25 00:23:25;;;;;;;6.57;1.02;;;-1.70;99.90;;;;;;5034666;28;20045;-75
2021/12/25 00:26:02;;;;;;;3.65;0.60;;;-1.70;99.90;;;;;;5050486;28;20053;-75
2021/12/25 00:36:00;;;;;;;5.70;0.77;;;-1.90;99.90;;;;;;5050860;28;20055;-77
2021/12/25 00:38:26;;;;;;;4.78;0.82;;;-1.90;99.90;;;;;;5050771;28;20049;-78
2021/12/25 00:40:51;;;;;;;2.22;0.75;;;-1.90;99.90;;;;;;5032594;28;20110;-76
2021/12/25 00:43:17;;;;;;;1.85;0.60;;;-2.00;99.90;;;;;;5050640;28;20049;-76
2021/12/25 00:45:43;;;;;;;9.43;0.90;;;-2.00;99.90;;;;;;5050202;28;20054;-75
2021/12/25 00:48:08;;;;;;;4.00;0.95;;;-2.00;99.90;;;;;;5032850;28;20041;-75
2021/12/25 00:50:34;;;;;;;3.80;0.85;;;-2.00;99.90;;;;;;5050460;28;20037;-76
2021/12/25 00:53:00;;;;;;;2.03;0.70;;;-2.10;99.90;;;;;;5031494;28;20104;-76
2021/12/25 00:55:26;;;;;;;5.22;0.70;;;-2.10;99.90;;;;;;5030635;28;20702;-77
2021/12/25 00:57:53;;;;;;;2.10;0.80;;;-2.10;99.90;;;;;;5030636;28;20042;-76
2021/12/25 01:00:19;;;;;;;4.20;0.95;;;-2.20;99.90;;;;;;5028891;28;20057;-76
2021/12/25 01:02:46;;;;;;;5.40;0.80;;;-2.20;99.90;;;;;;5030720;28;20034;-75
2021/12/25 01:05:14;;;;;;;6.15;0.80;;;-2.20;99.90;;;;;;5030518;28;20132;-76
2021/12/25 01:07:40;;;;;;;3.40;0.85;;;-2.30;99.90;;;;;;5013305;28;20046;-76
2021/12/25 01:10:09;;;;;;;7.55;0.68;;;-2.30;99.90;;;;;;5030822;28;20060;-75
2021/12/25 01:12:52;;;;;;;3.63;0.70;;;-2.30;99.90;;;;;;5012489;28;20041;-76
2021/12/25 01:15:24;;;;;;;4.28;1.08;;;-2.40;99.90;;;;;;5030113;28;20053;-75
2021/12/25 01:26:03;;;;;;;5.57;1.30;;;-2.50;99.90;;;;;;5013841;28;20128;-76
2021/12/25 01:50:07;;;;;;;1.63;0.50;;;-2.70;99.90;;;;;;4934319;29;20104;-77
2021/12/25 01:52:34;;;;;;;2.42;0.57;;;-2.80;99.90;;;;;;4902665;29;20055;-77
2021/12/25 01:55:07;;;;;;;2.20;0.40;;;-2.80;99.90;;;;;;4918302;29;20143;-77
2021/12/25 01:57:33;;;;;;;4.38;0.50;;;-2.80;99.90;;;;;;4934414;29;20514;-77
2021/12/25 02:00:00;;;;;;;1.63;0.60;;;-2.80;99.90;;;;;;4918331;29;20055;-77
2021/12/25 02:02:27;;;;;;;6.28;0.60;;;-2.80;99.90;;;;;;4933667;29;20056;-77
2021/12/25 02:04:53;;;;;;;4.20;0.63;;;-2.90;99.90;;;;;;4933688;29;20153;-76
2021/12/25 02:07:21;;;;;;;2.15;0.60;;;-3.00;99.90;;;;;;4932785;28;20057;-75
2021/12/25 02:09:46;;;;;;;3.03;0.43;;;-3.00;99.90;;;;;;5033224;28;20045;-75
2021/12/25 02:12:14;;;;;;;3.42;0.63;;;-3.00;99.90;;;;;;5033295;28;20743;-76
2021/12/25 02:14:43;;;;;;;1.95;0.52;;;-3.00;99.90;;;;;;5033115;28;20046;-77
2021/12/25 02:17:21;;;;;;;3.63;0.47;;;-3.00;99.90;;;;;;5015403;28;20049;-78
2021/12/25 02:19:54;;;;;;;2.88;0.50;;;-3.10;99.90;;;;;;5032765;28;20124;-76
2021/12/25 02:22:23;;;;;;;2.03;0.40;;;-3.10;99.90;;;;;;5033058;28;20042;-78
2021/12/25 02:24:49;;;;;;;3.72;0.50;;;-3.10;99.90;;;;;;5032990;28;20056;-76
2021/12/25 02:27:14;;;;;;;4.75;0.60;;;-3.10;99.90;;;;;;5052808;28;20048;-78
2021/12/25 02:29:40;;;;;;;2.35;0.65;;;-3.10;99.90;;;;;;5035083;28;20110;-80
2021/12/25 02:32:07;;;;;;;3.47;0.60;;;-3.20;99.90;;;;;;5051900;28;20139;-77
2021/12/25 02:34:33;;;;;;;1.23;0.50;;;-3.20;99.90;;;;;;5052533;28;20069;-78
2021/12/25 02:36:59;;;;;;;5.13;0.82;;;-3.20;99.90;;;;;;5051383;28;20044;-78
2021/12/25 02:39:24;;;;;;;1.60;0.40;;;-3.20;99.90;;;;;;5049872;28;20426;-78
2021/12/25 02:41:50;;;;;;;3.20;0.70;;;-3.30;99.90;;;;;;5052452;28;20536;-77
2021/12/25 02:44:16;;;;;;;1.52;0.47;;;-3.30;99.90;;;;;;5034233;28;20048;-76
2021/12/25 02:46:42;;;;;;;2.60;0.50;;;-3.30;99.90;;;;;;5052703;28;20124;-78
2021/12/25 02:49:12;;;;;;;3.83;0.75;;;-3.30;99.90;;;;;;5051078;28;20128;-76
2021/12/25 02:51:37;;;;;;;1.45;0.30;;;-3.40;99.90;;;;;;5052320;28;20041;-77
2021/12/25 02:54:03;;;;;;;2.10;0.60;;;-3.40;99.90;;;;;;5043076;28;20053;-77
2021/12/25 02:56:29;;;;;;;4.73;0.77;;;-3.40;99.90;;;;;;5032424;28;20124;-77
2021/12/25 02:58:54;;;;;;;3.00;0.70;;;-3.40;99.90;;;;;;5032369;28;20049;-76
2021/12/25 03:01:21;;;;;;;2.38;0.50;;;-3.50;99.90;;;;;;5032638;28;20072;-78
2021/12/25 03:03:47;;;;;;;3.10;1.05;;;-3.50;99.90;;;;;;5014419;28;20057;-78
2021/12/25 03:06:14;;;;;;;5.77;1.00;;;-3.50;99.90;;;;;;5030587;28;20065;-78
2021/12/25 03:08:41;;;;;;;4.97;0.67;;;-3.50;99.90;;;;;;5032337;28;20444;-78
2021/12/25 03:11:08;;;;;;;4.20;0.50;;;-3.50;99.90;;;;;;5033122;28;20045;-77
2021/12/25 03:13:56;;;;;;;2.75;0.60;;;-3.50;99.90;;;;;;5032435;28;20041;-77
2021/12/25 03:16:22;;;;;;;1.83;0.50;;;-3.60;99.90;;;;;;5031981;28;20045;-77
2021/12/25 03:18:51;;;;;;;3.30;0.67;;;-3.60;99.90;;;;;;5031905;28;20041;-76
2021/12/25 03:21:17;;;;;;;2.93;1.10;;;-3.60;99.90;;;;;;5030315;28;20543;-76
2021/12/25 03:23:44;;;;;;;4.63;0.40;;;-3.60;99.90;;;;;;5037702;28;20052;-77
2021/12/25 03:26:10;;;;;;;2.57;0.50;;;-3.70;99.90;;;;;;5051679;28;20053;-77
2021/12/25 03:28:41;;;;;;;6.03;0.60;;;-3.70;99.90;;;;;;5051809;28;20088;-76
2021/12/25 03:31:17;;;;;;;1.90;0.33;;;-3.70;99.90;;;;;;5051782;28;20492;-76
2021/12/25 03:33:45;;;;;;;2.00;0.40;;;-3.70;99.90;;;;;;5051318;28;20080;-77
2021/12/25 03:36:12;;;;;;;2.00;0.53;;;-3.70;99.90;;;;;;5051450;28;20041;-77
2021/12/25 03:38:37;;;;;;;2.47;0.70;;;-3.70;99.90;;;;;;5051380;28;20073;-77
2021/12/25 03:41:06;;;;;;;1.60;0.50;;;-3.80;99.90;;;;;;5033407;28;20083;-79
2021/12/25 03:43:32;;;;;;;5.80;0.50;;;-3.80;99.90;;;;;;5051547;28;20373;-77
2021/12/25 03:45:58;;;;;;;2.03;0.50;;;-3.80;99.90;;;;;;5017082;28;20076;-77
2021/12/25 03:58:48;;;;;;;2.97;0.70;;;-3.90;99.90;;;;;;5033732;28;20053;-77
2021/12/25 04:04:09;;;;;;;2.92;0.60;;;-4.00;99.90;;;;;;5051112;28;20048;-75
2021/12/25 04:06:43;;;;;;;1.37;0.47;;;-4.00;99.90;;;;;;5051373;28;20396;-78
2021/12/25 04:09:20;;;;;;;1.63;0.40;;;-4.00;99.90;;;;;;5050874;28;20499;-75
2021/12/25 04:11:45;;;;;;;1.80;0.33;;;-4.00;99.90;;;;;;5051192;28;20388;-76
2021/12/25 04:14:11;;;;;;;0.67;0.37;;;-4.00;99.90;;;;;;5032523;28;20107;-76
2021/12/25 04:16:37;;;;;;;1.87;0.60;;;-4.10;99.90;;;;;;5051356;28;20399;-77
2021/12/25 04:19:02;;;;;;;0.77;0.40;;;-4.10;99.90;;;;;;5051203;28;20508;-77
2021/12/25 04:21:29;;;;;;;1.47;0.50;;;-4.10;99.90;;;;;;5051126;28;20045;-77
2021/12/25 04:23:54;;;;;;;2.63;0.50;;;-4.10;99.90;;;;;;5042809;28;20045;-76
2021/12/25 04:26:22;;;;;;;1.60;0.30;;;-4.20;99.90;;;;;;5042622;28;20518;-76
2021/12/25 04:29:04;;;;;;;1.67;0.30;;;-4.20;99.90;;;;;;5050650;28;20049;-76
2021/12/25 04:31:36;;;;;;;1.53;0.60;;;-4.20;99.90;;;;;;5033017;28;20127;-76
2021/12/25 05:04:13;;;;;;;1.43;0.40;;;-4.40;99.90;;;;;;5036292;28;20065;-78
2021/12/25 05:06:26;;;;;;;4.00;0.40;;;-4.40;99.90;;;;;;5053218;28;20063;-78
2021/12/25 05:08:54;;;;;;;1.50;0.40;;;-4.40;99.90;;;;;;5035959;28;20057;-76
2021/12/25 05:11:20;;;;;;;2.00;0.30;;;-4.40;99.90;;;;;;5053967;28;20481;-78
2021/12/25 05:13:49;;;;;;;1.27;0.50;;;-4.40;99.90;;;;;;5036291;28;20049;-77
2021/12/25 05:16:15;;;;;;;1.27;0.50;;;-4.50;99.90;;;;;;5054365;28;20048;-77
2021/12/25 05:18:40;;;;;;;1.00;0.30;;;-4.50;99.90;;;;;;5036638;28;20097;-78
2021/12/25 05:21:07;;;;;;;0.70;0.43;;;-4.50;99.90;;;;;;5035761;28;20056;-75
2021/12/25 05:23:34;;;;;;;3.63;0.40;;;-4.50;99.90;;;;;;5040668;28;20049;-77
2021/12/25 05:25:59;;;;;;;0.93;0.40;;;-4.50;99.90;;;;;;5053421;28;20072;-78
2021/12/25 05:28:26;;;;;;;0.50;0.30;;;-4.50;99.90;;;;;;5052744;28;20041;-77
2021/12/25 05:30:54;;;;;;;2.77;0.33;;;-4.60;99.90;;;;;;5054095;28;20045;-77
2021/12/25 05:33:21;;;;;;;1.43;0.30;;;-4.50;99.90;;;;;;5053937;28;20124;-77
2021/12/25 05:35:47;;;;;;;1.40;0.40;;;-4.60;99.90;;;;;;5019720;28;20406;-77
2021/12/25 05:38:14;;;;;;;0.50;0.30;;;-4.60;99.90;;;;;;5053616;28;20056;-77
2021/12/25 05:40:45;;;;;;;1.17;0.50;;;-4.60;99.90;;;;;;5053790;28;20107;-78
2021/12/25 05:43:11;;;;;;;3.43;0.60;;;-4.60;99.90;;;;;;5035270;28;20099;-77
2021/12/25 05:45:37;;;;;;;2.03;0.47;;;-4.60;99.90;;;;;;5052467;28;20079;-76
2021/12/25 05:48:04;;;;;;;1.33;0.40;;;-4.70;99.90;;;;;;5053869;28;20052;-77
2021/12/25 05:50:30;;;;;;;1.67;0.40;;;-4.70;99.90;;;;;;5053749;28;20037;-76
2021/12/25 05:52:56;;;;;;;1.13;0.40;;;-4.70;99.90;;;;;;5053089;28;20127;-76
2021/12/25 05:55:23;;;;;;;1.80;0.50;;;-4.70;99.90;;;;;;5035420;28;20055;-77
2021/12/25 05:57:49;;;;;;;1.40;0.50;;;-4.70;99.90;;;;;;5053228;28;20094;-76
2021/12/25 06:00:16;;;;;;;3.60;0.57;;;-4.80;99.90;;;;;;5035499;28;20049;-78
2021/12/25 06:02:42;;;;;;;2.20;0.40;;;-4.80;99.90;;;;;;5052363;28;20439;-77
2021/12/25 06:05:08;;;;;;;3.70;0.47;;;-4.80;99.90;;;;;;5053047;28;20137;-76
2021/12/25 06:07:34;;;;;;;1.00;0.50;;;-4.80;99.90;;;;;;5052267;28;20124;-76
2021/12/25 06:10:00;;;;;;;3.97;0.40;;;-4.80;99.90;;;;;;5053555;28;20041;-76
2021/12/25 06:12:27;;;;;;;3.67;0.60;;;-4.80;99.90;;;;;;5035126;28;20057;-76
2021/12/25 06:14:54;;;;;;;4.83;0.60;;;-4.90;99.90;;;;;;5034259;28;20053;-76
2021/12/25 06:17:19;;;;;;;2.63;0.73;;;-4.90;99.90;;;;;;5053215;28;20041;-76
2021/12/25 06:19:45;;;;;;;0.90;0.43;;;-4.90;99.90;;;;;;5051856;28;20045;-76
2021/12/25 06:22:11;;;;;;;2.60;0.40;;;-4.90;99.90;;;;;;5042045;28;20045;-76
2021/12/25 06:24:40;;;;;;;2.27;0.47;;;-4.90;99.90;;;;;;5018369;28;20100;-75
2021/12/25 06:27:06;;;;;;;1.97;0.60;;;-4.90;99.90;;;;;;5035036;28;20056;-75
2021/12/25 06:29:31;;;;;;;2.67;0.70;;;-4.90;99.90;;;;;;5033850;28;20053;-76
2021/12/25 06:31:58;;;;;;;5.17;0.50;;;-4.90;99.90;;;;;;5033002;28;20412;-76
2021/12/25 06:34:24;;;;;;;2.20;0.67;;;-4.90;99.90;;;;;;5015131;28;20424;-75
2021/12/25 06:36:50;;;;;;;1.13;0.43;;;-5.00;99.90;;;;;;5015428;28;20393;-76
2021/12/25 06:39:16;;;;;;;2.20;0.70;;;-4.90;99.90;;;;;;5032698;28;20041;-76
2021/12/25 06:41:43;;;;;;;1.23;0.47;;;-5.00;99.90;;;;;;5031809;28;20052;-75
2021/12/25 06:44:09;;;;;;;3.73;0.60;;;-5.00;99.90;;;;;;5031461;28;20117;-76
2021/12/25 06:46:35;;;;;;;2.87;0.67;;;-5.00;99.90;;;;;;5032861;28;20049;-76
2021/12/25 06:49:01;;;;;;;1.70;0.70;;;-5.00;99.90;;;;;;5031542;28;20521;-77
2021/12/25 06:51:26;;;;;;;1.40;0.57;;;-5.00;99.90;;;;;;5019057;28;20068;-76
2021/12/25 06:53:52;;;;;;;3.07;0.50;;;-5.00;99.90;;;;;;5050912;28;20048;-76
2021/12/25 06:56:18;;;;;;;1.10;0.47;;;-5.10;99.90;;;;;;5034660;28;20055;-76
2021/12/25 06:58:44;;;;;;;2.80;0.97;;;-5.10;99.90;;;;;;5039587;28;20045;-77
2021/12/25 07:01:10;;;;;;;3.23;0.40;;;-5.10;99.90;;;;;;5032224;28;20044;-78
2021/12/25 07:03:36;;;;;;;1.53;0.50;;;-5.10;99.90;;;;;;5032225;28;20129;-75
2021/12/25 07:06:02;;;;;;;2.73;0.40;;;-5.00;99.90;;;;;;5032318;28;20128;-76
2021/12/25 07:08:27;;;;;;;2.17;0.47;;;-5.10;99.90;;;;;;5032191;28;20049;-77
2021/12/25 07:10:53;;;;;;;2.70;0.83;;;-5.10;99.90;;;;;;5032148;28;20045;-77
2021/12/25 07:13:19;;;;;;;2.20;0.80;;;-5.00;99.90;;;;;;5031902;28;20052;-77
2021/12/25 07:15:46;;;;;;;4.27;0.70;;;-5.00;99.90;;;;;;5030396;28;20488;-76
2021/12/25 07:18:12;;;;;;;3.30;0.57;;;-5.00;99.90;;;;;;5031839;28;20048;-76
2021/12/25 07:20:39;;;;;;;2.03;0.77;;;-5.00;99.90;;;;;;5032055;28;20049;-76
2021/12/25 07:23:05;;;;;;;2.60;0.60;;;-5.00;99.90;;;;;;5025115;28;20056;-76
2021/12/25 07:25:30;;;;;;;2.83;0.60;;;-5.10;99.90;;;;;;5033505;28;20053;-76
2021/12/25 07:27:57;;;;;;;1.53;0.53;;;-5.00;99.90;;;;;;5052017;28;20064;-75
2021/12/25 07:30:23;;;;;;;1.07;0.40;;;-5.00;99.90;;;;;;5051940;28;20407;-75
2021/12/25 07:32:48;;;;;;;1.73;0.40;;;-5.00;99.90;;;;;;5033898;28;20049;-76
2021/12/25 07:35:14;;;;;;;1.17;0.53;;;-5.00;99.90;;;;;;5051826;28;20048;-76
2021/12/25 07:37:40;;;;;;;4.20;0.60;;;-5.00;99.90;;;;;;5050538;28;20037;-75
2021/12/25 07:40:09;;;;;;;2.10;0.50;;;-5.00;99.90;;;;;;5051594;28;20049;-75
2021/12/25 07:42:35;;;;;;;3.83;0.70;;;-5.00;99.90;;;;;;5047397;28;20112;-76
2021/12/25 07:45:06;;;;;;;3.60;0.67;;;-5.00;99.90;;;;;;5031671;28;20103;-76
2021/12/25 07:47:34;;;;;;;1.60;0.50;;;-5.00;99.90;;;;;;5051085;28;20492;-77
2021/12/25 07:50:01;;;;;;;3.40;0.70;;;-5.00;99.90;;;;;;5051577;28;20048;-76
2021/12/25 07:52:27;;;;;;;1.20;0.40;;;-5.00;99.90;;;;;;5032993;28;20055;-77
2021/12/25 07:54:53;;;;;;;4.40;0.67;;;-5.00;99.90;;;;;;5051247;28;20057;-77
2021/12/25 07:57:19;;;;;;;1.60;0.50;;;-5.00;99.90;;;;;;5051508;28;20377;-76
2021/12/25 07:59:45;;;;;;;1.57;0.57;;;-4.90;99.90;;;;;;5051173;28;20170;-76
2021/12/25 08:02:11;;;;;;;2.30;0.60;;;-4.90;99.90;;;;;;5051180;28;20037;-77
2021/12/25 08:04:37;;;;;;;3.20;0.40;;;-4.90;99.90;;;;;;5033225;28;20060;-78
2021/12/25 08:07:03;;;;;;;2.00;0.50;;;-4.90;99.90;;;;;;5015934;28;20057;-77
2021/12/25 08:09:30;;;;;;;2.50;0.70;;;-4.90;99.90;;;;;;5041799;28;20053;-76
2021/12/25 08:11:57;;;;;;;1.57;0.47;;;-4.90;99.90;;;;;;5031300;28;20051;-78
2021/12/25 08:14:25;;;;;;;5.97;0.83;;;-4.90;99.90;;;;;;5050468;28;20594;-77
2021/12/25 08:16:56;;;;;;;3.53;0.40;;;-4.90;99.90;;;;;;5051067;28;20088;-77
2021/12/25 08:19:23;;;;;;;4.93;0.93;;;-4.90;99.90;;;;;;5050496;28;20055;-77
2021/12/25 08:21:49;;;;;;;1.77;0.50;;;-4.80;99.90;;;;;;5044030;28;20333;-76
2021/12/25 08:24:16;;;;;;;4.20;0.60;;;-4.80;99.90;;;;;;5043091;28;20037;-78
2021/12/25 08:26:43;;;;;;;1.47;0.50;;;-4.80;99.90;;;;;;5050639;28;20052;-78
2021/12/25 08:29:09;;;;;;;2.23;0.53;;;-4.80;99.90;;;;;;5032120;28;20122;-79
2021/12/25 08:31:35;;;;;;;6.13;0.63;;;-4.80;99.90;;;;;;5050876;28;20484;-78
2021/12/25 08:34:00;;;;;;;6.17;0.60;;;-4.80;99.90;;;;;;5029466;28;20446;-76
2021/12/25 08:36:26;;;;;;;2.17;0.60;;;-4.80;99.90;;;;;;5044570;28;20086;-77
2021/12/25 08:38:52;;;;;;;2.80;0.60;;;-4.70;99.90;;;;;;5050580;28;20037;-79
2021/12/25 08:41:20;;;;;;;2.17;0.80;;;-4.70;99.90;;;;;;5050622;28;20052;-77
2021/12/25 08:43:48;;;;;;;1.47;0.60;;;-4.70;99.90;;;;;;5050583;28;20041;-77
2021/12/25 08:46:18;;;;;;;3.53;0.70;;;-4.70;99.90;;;;;;5050673;28;20053;-77
2021/12/25 08:48:45;;;;;;;2.57;0.63;;;-4.70;99.90;;;;;;5048920;28;20053;-78
2021/12/25 08:51:11;;;;;;;1.53;0.60;;;-4.70;99.90;;;;;;5032321;28;20788;-78
2021/12/25 08:53:38;;;;;;;2.13;0.70;;;-4.70;99.90;;;;;;5050415;28;20045;-77
2021/12/25 08:56:04;;;;;;;2.97;0.63;;;-4.60;99.90;;;;;;5049823;28;20128;-79
2021/12/25 08:58:31;;;;;;;2.87;0.60;;;-4.60;99.90;;;;;;5032531;28;20044;-77
2021/12/25 09:01:02;;;;;;;5.33;0.93;;;-4.60;99.90;;;;;;5050532;28;20068;-80
2021/12/25 09:03:30;;;;;;;1.67;0.80;;;-4.60;99.90;;;;;;5050796;28;20040;-79
2021/12/25 09:05:57;;;;;;;1.73;0.67;;;-4.50;99.90;;;;;;5044731;28;20099;-78
2021/12/25 09:08:24;;;;;;;4.00;0.90;;;-4.50;99.90;;;;;;5044653;28;20231;-77
2021/12/25 09:10:50;;;;;;;1.60;0.60;;;-4.50;99.90;;;;;;5045220;28;20052;-79
2021/12/25 09:13:16;;;;;;;2.93;1.03;;;-4.50;99.90;;;;;;5036780;28;20068;-77
2021/12/25 09:15:41;;;;;;;3.43;0.80;;;-4.50;99.90;;;;;;5029066;28;20488;-79
2021/12/25 09:18:07;;;;;;;1.80;0.57;;;-4.40;99.90;;;;;;5030476;28;20497;-78
2021/12/25 09:20:33;;;;;;;4.23;0.80;;;-4.40;99.90;;;;;;5028492;28;20050;-79
2021/12/25 09:22:59;;;;;;;3.80;0.60;;;-4.30;99.90;;;;;;5028364;28;20041;-81
2021/12/25 09:25:25;;;;;;;3.30;0.70;;;-4.30;99.90;;;;;;5012336;28;20419;-77
2021/12/25 09:27:51;;;;;;;2.33;0.73;;;-4.30;99.90;;;;;;5030431;28;20056;-82
2021/12/25 09:30:17;;;;;;;1.87;0.50;;;-4.20;99.90;;;;;;5012163;28;20041;-78
2021/12/25 09:32:43;;;;;;;2.83;0.60;;;-4.20;99.90;;;;;;5011986;28;20534;-78
2021/12/25 09:35:10;;;;;;;3.40;0.70;;;-4.10;99.90;;;;;;5030216;28;20140;-78
2021/12/25 09:37:35;;;;;;;4.03;0.60;;;-4.00;99.90;;;;;;5029659;28;20053;-77
2021/12/25 09:40:03;;;;;;;2.63;0.60;;;-4.00;99.90;;;;;;5012838;28;20056;-78
2021/12/25 09:42:29;;;;;;;3.33;0.80;;;-3.90;99.90;;;;;;5033371;28;20088;-78
2021/12/25 09:44:55;;;;;;;4.77;0.80;;;-3.90;99.90;;;;;;5033400;28;20037;-78
2021/12/25 09:47:22;;;;;;;5.93;0.90;;;-3.70;99.90;;;;;;5033804;28;20052;-78
2021/12/25 09:49:48;;;;;;;2.47;0.60;;;-3.70;99.90;;;;;;5032711;28;20059;-78
2021/12/25 09:52:14;;;;;;;4.03;0.60;;;-3.60;99.90;;;;;;5031994;28;20419;-79
2021/12/25 09:54:39;;;;;;;1.90;0.57;;;-3.50;99.90;;;;;;5033613;28;20049;-79
2021/12/25 09:57:05;;;;;;;2.87;0.73;;;-3.40;99.90;;;;;;5012119;28;20049;-78
2021/12/25 09:59:31;;;;;;;2.20;0.67;;;-3.30;99.90;;;;;;5013647;28;20046;-78
2021/12/25 10:01:57;;;;;;;7.17;0.90;;;-3.30;99.90;;;;;;5014302;28;20145;-79
2021/12/25 10:04:45;;;;;;;5.37;0.60;;;-3.20;99.90;;;;;;5033291;28;20123;-79
2021/12/25 10:07:21;;;;;;;2.13;0.70;;;-3.00;99.90;;;;;;5032818;28;20080;-80
2021/12/25 10:10:16;;;;;;;0.93;0.50;;;-2.90;99.90;;;;;;5033352;28;20111;-79
2021/12/25 10:12:48;;;;;;;4.37;0.60;;;-2.70;99.90;;;;;;5030535;28;20063;-79
2021/12/25 10:15:17;;;;;;;4.83;0.90;;;-2.60;99.90;;;;;;5041949;28;20049;-78
2021/12/25 10:17:50;;;;;;;3.47;0.70;;;-2.40;99.90;;;;;;5036538;28;20053;-80
2021/12/25 10:20:22;;;;;;;2.72;0.63;;;-2.20;99.90;;;;;;5014927;28;20060;-78
2021/12/25 10:23:10;;;;;;;3.05;0.55;;;-2.10;99.90;;;;;;5021756;28;20049;-77
2021/12/25 10:25:53;;;;;;;2.78;0.95;;;-2.00;99.90;;;;;;5032736;28;20053;-78
2021/12/25 10:28:40;;;;;;;3.22;0.63;;;-1.90;99.90;;;;;;5015334;28;20053;-77
2021/12/25 10:31:09;;;;;;;7.25;0.80;;;-1.70;99.90;;;;;;5032544;28;20033;-75
2021/12/25 10:33:50;;;;;;;2.33;0.80;;;-1.70;99.90;;;;;;5052326;28;20436;-76
2021/12/25 10:36:27;;;;;;;1.90;0.60;;;-1.50;99.90;;;;;;5052611;28;20037;-77
2021/12/25 10:39:07;;;;;;;3.75;0.82;;;-1.40;99.90;;;;;;5034288;28;20487;-78
2021/12/25 10:41:36;;;;;;;6.50;0.70;;;-1.20;99.90;;;;;;5033346;28;20064;-77
2021/12/25 10:44:10;;;;;;;3.20;0.88;;;-1.10;99.90;;;;;;5032092;28;20520;-77
2021/12/25 10:46:52;;;;;;;2.13;0.70;;;-1.10;99.90;;;;;;5032587;28;20395;-77
2021/12/25 10:49:19;;;;;;;2.15;1.20;;;-1.00;99.90;;;;;;5025548;28;20045;-77
2021/12/25 10:51:46;;;;;;;3.33;1.13;;;-0.90;99.90;;;;;;5031997;28;20126;-76
2021/12/25 10:54:14;;;;;;;7.75;1.33;;;-0.90;99.90;;;;;;5032193;28;20046;-77
2021/12/25 10:56:41;;;;;;;2.00;0.50;;;-0.70;99.90;;;;;;5014881;28;20408;-76
2021/12/25 10:59:11;;;;;;;1.70;0.98;;;-0.60;99.90;;;;;;5032243;28;20037;-73
2021/12/25 11:01:41;;;;;;;2.60;0.80;;;-0.60;99.90;;;;;;5032110;28;20055;-76
2021/12/25 11:04:29;;;;;;;5.38;0.70;;;-0.40;99.90;;;;;;5014192;28;20045;-75
2021/12/25 11:06:56;;;;;;;3.15;0.80;;;-0.50;99.90;;;;;;5032244;28;20140;-76
2021/12/25 11:09:22;;;;;;;2.00;0.57;;;-0.50;99.90;;;;;;5032011;28;20053;-76
2021/12/25 11:12:16;;;;;;;3.35;0.73;;;-0.30;99.90;;;;;;5031811;28;20129;-75
2021/12/25 11:14:43;;;;;;;1.92;0.70;;;-0.30;99.90;;;;;;5032226;28;20045;-75
2021/12/25 11:17:25;;;;;;;1.88;0.50;;;-0.20;99.90;;;;;;5032035;28;20045;-76
2021/12/25 11:19:59;;;;;;;1.85;0.70;;;0.00;99.90;;;;;;5014222;28;20053;-76
2021/12/25 11:22:26;;;;;;;1.20;0.50;;;0.10;99.90;;;;;;5031865;28;20094;-75
2021/12/25 11:24:54;;;;;;;4.85;0.90;;;0.10;99.90;;;;;;5031837;28;20092;-75
2021/12/25 11:27:22;;;;;;;2.92;1.23;;;0.10;99.90;;;;;;5031773;28;20072;-76
2021/12/25 11:29:49;;;;;;;2.38;0.85;;;0.20;99.90;;;;;;5014452;28;20469;-77
2021/12/25 11:32:16;;;;;;;1.40;0.60;;;0.40;99.90;;;;;;5031882;28;20107;-77
2021/12/25 11:34:42;;;;;;;2.72;0.77;;;0.30;99.90;;;;;;5031723;28;20056;-76
2021/12/25 11:37:07;;;;;;;2.15;0.70;;;0.30;99.90;;;;;;5013667;28;20045;-75
2021/12/25 11:39:34;;;;;;;2.80;0.80;;;0.30;99.90;;;;;;5031538;28;20420;-77
2021/12/25 11:42:07;;;;;;;4.28;0.82;;;0.30;99.90;;;;;;5009870;28;20056;-78
2021/12/25 11:44:46;;;;;;;5.35;0.95;;;0.50;99.90;;;;;;5021123;28;20042;-76
2021/12/25 11:47:34;;;;;;;3.83;0.70;;;0.60;99.90;;;;;;5015508;28;20060;-77
2021/12/25 11:50:03;;;;;;;5.75;1.13;;;0.60;99.90;;;;;;5030021;28;20126;-76
2021/12/25 11:52:39;;;;;;;1.50;0.63;;;0.50;99.90;;;;;;5023899;28;20046;-76
2021/12/25 11:58:35;;;;;;;6.18;1.63;;;0.70;99.90;;;;;;4933688;29;20051;-76
2021/12/25 12:01:33;;;;;;;5.18;1.10;;;0.60;99.90;;;;;;4950980;29;20071;-76
2021/12/25 12:04:03;;;;;;;2.15;0.80;;;0.70;99.90;;;;;;4948516;28;20047;-76
2021/12/25 12:06:44;;;;;;;5.22;0.50;;;0.80;99.90;;;;;;4950622;29;20055;-77
2021/12/25 12:09:12;;;;;;;5.70;1.05;;;0.90;99.90;;;;;;4950689;29;20502;-77
2021/12/25 12:11:40;;;;;;;1.88;0.63;;;0.90;99.90;;;;;;4934690;29;20062;-78
2021/12/25 12:14:26;;;;;;;2.70;0.93;;;0.80;99.90;;;;;;4948440;29;20047;-78
2021/12/25 12:17:01;;;;;;;1.83;0.90;;;0.70;99.90;;;;;;4950569;29;20047;-78
2021/12/25 12:19:30;;;;;;;3.75;1.17;;;0.70;99.90;;;;;;4950284;29;20503;-77
2021/12/25 12:21:56;;;;;;;2.90;0.80;;;0.70;99.90;;;;;;4950122;29;20135;-78
2021/12/25 12:24:43;;;;;;;2.22;0.60;;;0.60;99.90;;;;;;4950525;29;20086;-79
2021/12/25 12:27:09;;;;;;;3.25;0.50;;;0.50;99.90;;;;;;4950114;29;20051;-79
2021/12/25 12:29:46;;;;;;;1.83;0.60;;;0.50;99.90;;;;;;4934079;29;20055;-78
2021/12/25 12:32:43;;;;;;;4.95;1.33;;;1.40;99.90;;;;;;4985685;28;20057;-76
2021/12/25 12:35:27;;;;;;;1.85;0.70;;;0.50;99.90;;;;;;5030273;28;20064;-76
2021/12/25 12:37:52;;;;;;;3.72;0.80;;;0.50;99.90;;;;;;5030713;28;20056;-76
2021/12/25 12:40:24;;;;;;;4.40;0.80;;;0.40;99.90;;;;;;5013153;28;20410;-76
2021/12/25 12:42:54;;;;;;;2.53;0.80;;;0.50;99.90;;;;;;5021083;28;20050;-76
2021/12/25 12:45:25;;;;;;;3.90;0.73;;;0.60;99.90;;;;;;5039001;28;20040;-78
2021/12/25 12:48:17;;;;;;;3.58;1.13;;;0.50;99.90;;;;;;5030854;28;20049;-77
2021/12/25 12:50:48;;;;;;;3.15;0.80;;;0.50;99.90;;;;;;5030596;28;20049;-77
2021/12/25 12:53:15;;;;;;;2.75;0.80;;;0.50;99.90;;;;;;5028352;28;20069;-75
2021/12/25 12:55:46;;;;;;;5.20;0.90;;;0.60;99.90;;;;;;5028823;28;20053;-76
2021/12/25 12:58:23;;;;;;;3.10;1.20;;;0.70;99.90;;;;;;5012969;28;20049;-75
2021/12/25 13:01:01;;;;;;;7.30;1.55;;;0.90;99.90;;;;;;5012736;28;20415;-78
2021/12/25 13:03:29;;;;;;;3.22;1.00;;;0.90;99.90;;;;;;5030470;28;20052;-77
2021/12/25 13:06:09;;;;;;;2.42;0.80;;;1.00;99.90;;;;;;5026738;28;20057;-75
2021/12/25 13:08:37;;;;;;;3.08;1.08;;;1.10;99.90;;;;;;5030479;28;20453;-76
2021/12/25 13:11:18;;;;;;;3.08;0.60;;;1.00;99.90;;;;;;5012714;28;20076;-76
2021/12/25 13:13:58;;;;;;;4.55;1.13;;;1.10;99.90;;;;;;5030467;28;20519;-76
2021/12/25 13:16:27;;;;;;;3.47;1.17;;;1.20;99.90;;;;;;5013420;28;20053;-76
2021/12/25 13:18:55;;;;;;;2.85;0.80;;;1.30;99.90;;;;;;5016645;28;20057;-78
2021/12/25 13:21:26;;;;;;;3.72;0.80;;;1.30;99.90;;;;;;5016352;28;20061;-76
2021/12/25 13:23:56;;;;;;;3.75;0.90;;;1.30;99.90;;;;;;5034105;28;20048;-77
2021/12/25 13:26:26;;;;;;;5.13;1.00;;;1.50;99.90;;;;;;5010158;28;20057;-77
2021/12/25 13:28:52;;;;;;;3.97;1.00;;;1.50;99.90;;;;;;5033856;28;20124;-78
2021/12/25 13:31:20;;;;;;;3.80;1.05;;;1.50;99.90;;;;;;5032321;28;20049;-78
2021/12/25 13:33:47;;;;;;;6.25;1.48;;;1.50;99.90;;;;;;5034046;28;20041;-76
2021/12/25 13:36:17;;;;;;;3.53;0.65;;;1.60;99.90;;;;;;5032329;28;20827;-76
2021/12/25 13:38:46;;;;;;;8.93;1.25;;;1.60;99.90;;;;;;5033980;28;20060;-78
2021/12/25 13:41:14;;;;;;;4.38;1.08;;;2.30;99.90;;;;;;4999702;28;20049;-77
2021/12/25 13:43:39;;;;;;;4.25;1.23;;;1.60;99.90;;;;;;5033775;28;20053;-78
2021/12/25 13:46:05;;;;;;;5.32;1.50;;;1.70;99.90;;;;;;5032225;28;20037;-78
2021/12/25 13:48:39;;;;;;;3.95;0.90;;;1.80;99.90;;;;;;5031131;28;20460;-77
2021/12/25 13:51:05;;;;;;;5.97;0.80;;;1.90;99.90;;;;;;5031269;28;20053;-77
2021/12/25 13:53:32;;;;;;;5.13;0.98;;;1.80;99.90;;;;;;5033532;28;20056;-79
2021/12/25 13:56:07;;;;;;;5.60;0.98;;;1.80;99.90;;;;;;5042183;28;20046;-76
2021/12/25 13:58:33;;;;;;;3.60;0.80;;;1.80;99.90;;;;;;5040294;28;20098;-77
2021/12/25 14:00:59;;;;;;;4.78;0.77;;;1.90;99.90;;;;;;5045126;28;20045;-77
2021/12/25 14:03:26;;;;;;;2.25;0.90;;;1.80;99.90;;;;;;5033113;28;20100;-77
2021/12/25 14:05:53;;;;;;;3.45;0.85;;;1.90;99.90;;;;;;5033339;28;20041;-76
2021/12/25 14:08:23;;;;;;;4.28;1.30;;;1.90;99.90;;;;;;5027925;28;20056;-75
2021/12/25 14:10:51;;;;;;;3.97;1.58;;;2.00;99.90;;;;;;5033208;28;20044;-76
2021/12/25 14:13:21;;;;;;;2.55;1.08;;;2.00;99.90;;;;;;5033151;28;20050;-75
2021/12/25 14:15:51;;;;;;;3.83;1.30;;;2.00;99.90;;;;;;5032990;28;20100;-76
2021/12/25 14:18:18;;;;;;;6.13;1.23;;;2.10;99.90;;;;;;5050489;28;20439;-77
2021/12/25 14:20:44;;;;;;;4.15;0.93;;;2.20;99.90;;;;;;5053013;28;20056;-77